Terminal Aerodrome Forecast
Issued by NWS Milwaukee/Sullivan, WI

Home | Current Version | Previous Version | Text Only | Print | Product List | Glossary On
Versions: 1 2 3 4 5 6 7 8 9 10 11 12 13 14 15 16 17 18 19 20 21 22 23 24 25 26 27 28 29 30 31 32 33 34 35 36 37 38 39 40 41 42 43 44 45 46 47 48 49 50
000
FTUS43 KMKX 290520
TAFMKE
TAF
KMKE 290520Z 2906/3012 19008KT P6SM SCT250
     FM291000 19012G19KT P6SM BKN200 WS020/19045KT
     FM291600 19018G29KT 3SM -RAPL SCT025 OVC050 WS020/20050KT
      TEMPO 2916/2917 1SM -SNPL BKN025
     FM291700 19020G32KT 2SM -RA SCT008 BKN015
      TEMPO 2917/2918 3/4SM -RAPL BKN008
     FM291900 22022G32KT P6SM -RA OVC015
     FM292100 23022G34KT P6SM VCSH OVC025
     FM300000 26018G29KT P6SM SCT025 BKN045
     FM300400 31013KT P6SM FEW050=

USA.gov is the U.S. government's official web portal to all federal, state and local government web resources and services.